GABS

Senou Airport

Senou, Mali
TAF GABS 142300Z 1500/1606 34006KT 8000 FEW030 PROB40 TEMPO 1507/1512 4500 HZ
Issued Valid From Valid To
Nov-14 @ 23:00 UTC
(an hour ago)
Nov-15 @ 00:00 UTC
(27 minutes ago)
Nov-16 @ 06:00 UTC
(-1 days ago)
Nov-15 @ 00:00 to Nov-16 @ 06:00
TAF GABS 142300Z 1500/1606 34006KT 8000 FEW030
Wind Visibility Clouds
340° at 6 knots 7,998 meters
  • Few at 3,000' AGL
Temporary  (Probability 40%) Nov-15 @ 07:00 to Nov-15 @ 12:00
PROB40 TEMPO 1507/1512 4500 HZ
Visibility Conditions
4,506 meters
  • Haze
TAF GABS 142300Z 1500/1606 34006KT 8000 FEW030 PROB40 TEMPO 1507/1512 4500 HZ
Issued Nov-14 @ 23:00 UTC
(an hour ago)
Valid From Nov-15 @ 00:00 UTC
(27 minutes ago)
Valid To Nov-16 @ 06:00 UTC
(-1 days ago)
Nov-15 @ 00:00 - Nov-16 @ 06:00
Wind Visibility
340° at 6 knots 7,998 meters
Clouds
  • Few at 3,000' AGL
Probability 40% Temporary Nov-15 @ 07:00 - Nov-15 @ 12:00
Conditions
  • Haze